sensor_id;sensor_type;location;lat;lon;timestamp;P1;durP1;ratioP1;P2;durP2;ratioP2
944;SDS011;459;48.676;9.034;2023-05-10T00:00:49;2.13;;;1.37;;
944;SDS011;459;48.676;9.034;2023-05-10T00:03:16;1.40;;;1.27;;
944;SDS011;459;48.676;9.034;2023-05-10T00:05:42;2.17;;;1.70;;
944;SDS011;459;48.676;9.034;2023-05-10T00:08:07;1.47;;;1.33;;
944;SDS011;459;48.676;9.034;2023-05-10T00:10:32;1.80;;;1.30;;
944;SDS011;459;48.676;9.034;2023-05-10T00:12:57;1.77;;;1.50;;
944;SDS011;459;48.676;9.034;2023-05-10T00:15:23;1.50;;;1.40;;
944;SDS011;459;48.676;9.034;2023-05-10T00:17:48;1.50;;;1.40;;
944;SDS011;459;48.676;9.034;2023-05-10T00:20:13;1.63;;;1.53;;
944;SDS011;459;48.676;9.034;2023-05-10T00:22:38;1.43;;;1.33;;
944;SDS011;459;48.676;9.034;2023-05-10T00:25:04;1.07;;;0.97;;
944;SDS011;459;48.676;9.034;2023-05-10T00:27:29;1.40;;;1.10;;
944;SDS011;459;48.676;9.034;2023-05-10T00:29:54;1.20;;;1.10;;
944;SDS011;459;48.676;9.034;2023-05-10T00:32:19;8.57;;;1.70;;
944;SDS011;459;48.676;9.034;2023-05-10T00:34:45;1.60;;;0.60;;
944;SDS011;459;48.676;9.034;2023-05-10T00:37:10;0.70;;;0.70;;
944;SDS011;459;48.676;9.034;2023-05-10T00:39:36;1.30;;;0.70;;
944;SDS011;459;48.676;9.034;2023-05-10T00:42:01;0.70;;;0.53;;
944;SDS011;459;48.676;9.034;2023-05-10T00:44:26;0.97;;;0.50;;
944;SDS011;459;48.676;9.034;2023-05-10T00:47:10;2.00;;;1.17;;
944;SDS011;459;48.676;9.034;2023-05-10T00:49:36;0.73;;;0.73;;
944;SDS011;459;48.676;9.034;2023-05-10T00:52:01;0.90;;;0.60;;
944;SDS011;459;48.676;9.034;2023-05-10T00:54:28;1.03;;;0.67;;
944;SDS011;459;48.676;9.034;2023-05-10T00:56:53;1.67;;;0.60;;
944;SDS011;459;48.676;9.034;2023-05-10T00:59:18;0.90;;;0.50;;
944;SDS011;459;48.676;9.034;2023-05-10T01:01:44;2.57;;;0.40;;
944;SDS011;459;48.676;9.034;2023-05-10T01:04:10;0.43;;;0.43;;
944;SDS011;459;48.676;9.034;2023-05-10T01:06:36;0.90;;;0.57;;
944;SDS011;459;48.676;9.034;2023-05-10T01:09:01;0.50;;;0.50;;
944;SDS011;459;48.676;9.034;2023-05-10T01:11:27;0.60;;;0.50;;
944;SDS011;459;48.676;9.034;2023-05-10T01:13:53;0.70;;;0.60;;
944;SDS011;459;48.676;9.034;2023-05-10T01:16:20;1.80;;;0.70;;
944;SDS011;459;48.676;9.034;2023-05-10T01:18:45;0.50;;;0.50;;
944;SDS011;459;48.676;9.034;2023-05-10T01:24:00;0.50;;;0.50;;
944;SDS011;459;48.676;9.034;2023-05-10T01:29:35;0.70;;;0.70;;
944;SDS011;459;48.676;9.034;2023-05-10T01:32:11;0.70;;;0.67;;
944;SDS011;459;48.676;9.034;2023-05-10T01:34:46;0.73;;;0.60;;
944;SDS011;459;48.676;9.034;2023-05-10T01:37:13;0.80;;;0.80;;
944;SDS011;459;48.676;9.034;2023-05-10T01:39:47;0.50;;;0.50;;
944;SDS011;459;48.676;9.034;2023-05-10T01:42:16;0.60;;;0.50;;
944;SDS011;459;48.676;9.034;2023-05-10T01:47:12;0.63;;;0.60;;
944;SDS011;459;48.676;9.034;2023-05-10T01:49:43;0.53;;;0.50;;
944;SDS011;459;48.676;9.034;2023-05-10T01:52:12;1.03;;;1.03;;
944;SDS011;459;48.676;9.034;2023-05-10T01:54:38;1.03;;;0.60;;
944;SDS011;459;48.676;9.034;2023-05-10T01:57:06;1.67;;;0.70;;
944;SDS011;459;48.676;9.034;2023-05-10T01:59:35;0.63;;;0.57;;
944;SDS011;459;48.676;9.034;2023-05-10T02:02:01;1.20;;;0.50;;
944;SDS011;459;48.676;9.034;2023-05-10T02:04:27;0.50;;;0.50;;
944;SDS011;459;48.676;9.034;2023-05-10T02:06:53;0.60;;;0.50;;
944;SDS011;459;48.676;9.034;2023-05-10T02:09:18;1.10;;;0.60;;
944;SDS011;459;48.676;9.034;2023-05-10T02:11:45;1.33;;;0.67;;
944;SDS011;459;48.676;9.034;2023-05-10T02:14:12;1.47;;;0.60;;
944;SDS011;459;48.676;9.034;2023-05-10T02:16:39;0.60;;;0.60;;
944;SDS011;459;48.676;9.034;2023-05-10T02:19:04;3.03;;;0.80;;
944;SDS011;459;48.676;9.034;2023-05-10T02:21:30;1.27;;;0.60;;
944;SDS011;459;48.676;9.034;2023-05-10T02:23:56;0.77;;;0.77;;
944;SDS011;459;48.676;9.034;2023-05-10T02:26:22;0.77;;;0.77;;
944;SDS011;459;48.676;9.034;2023-05-10T02:28:48;2.80;;;0.83;;
944;SDS011;459;48.676;9.034;2023-05-10T02:31:14;1.00;;;0.90;;
944;SDS011;459;48.676;9.034;2023-05-10T02:33:40;1.20;;;1.10;;
944;SDS011;459;48.676;9.034;2023-05-10T02:36:06;1.57;;;0.93;;
944;SDS011;459;48.676;9.034;2023-05-10T02:38:32;0.70;;;0.70;;
944;SDS011;459;48.676;9.034;2023-05-10T02:40:58;1.97;;;1.00;;
944;SDS011;459;48.676;9.034;2023-05-10T02:43:24;0.97;;;0.80;;
944;SDS011;459;48.676;9.034;2023-05-10T02:45:49;2.13;;;1.10;;
944;SDS011;459;48.676;9.034;2023-05-10T02:48:15;0.70;;;0.70;;
944;SDS011;459;48.676;9.034;2023-05-10T02:50:41;1.40;;;1.20;;
944;SDS011;459;48.676;9.034;2023-05-10T02:53:14;1.60;;;0.80;;
944;SDS011;459;48.676;9.034;2023-05-10T02:55:40;1.03;;;0.93;;
944;SDS011;459;48.676;9.034;2023-05-10T02:58:07;1.07;;;0.97;;
944;SDS011;459;48.676;9.034;2023-05-10T03:00:32;1.17;;;1.17;;
944;SDS011;459;48.676;9.034;2023-05-10T03:02:57;1.20;;;1.00;;
944;SDS011;459;48.676;9.034;2023-05-10T03:05:23;1.17;;;1.00;;
944;SDS011;459;48.676;9.034;2023-05-10T03:07:48;1.83;;;1.00;;
944;SDS011;459;48.676;9.034;2023-05-10T03:10:13;1.90;;;1.10;;
944;SDS011;459;48.676;9.034;2023-05-10T03:12:41;1.20;;;1.10;;
944;SDS011;459;48.676;9.034;2023-05-10T03:17:56;1.57;;;1.27;;
944;SDS011;459;48.676;9.034;2023-05-10T03:20:24;1.37;;;1.13;;
944;SDS011;459;48.676;9.034;2023-05-10T03:22:55;1.20;;;1.10;;
944;SDS011;459;48.676;9.034;2023-05-10T03:25:25;1.03;;;0.93;;
944;SDS011;459;48.676;9.034;2023-05-10T03:27:50;1.80;;;1.10;;
944;SDS011;459;48.676;9.034;2023-05-10T03:30:16;1.47;;;1.37;;
944;SDS011;459;48.676;9.034;2023-05-10T03:32:42;1.27;;;1.17;;
944;SDS011;459;48.676;9.034;2023-05-10T03:35:08;4.30;;;1.33;;
944;SDS011;459;48.676;9.034;2023-05-10T03:37:33;1.30;;;1.20;;
944;SDS011;459;48.676;9.034;2023-05-10T03:39:58;2.07;;;1.23;;
944;SDS011;459;48.676;9.034;2023-05-10T03:42:24;1.37;;;1.27;;
944;SDS011;459;48.676;9.034;2023-05-10T03:44:49;1.30;;;1.20;;
944;SDS011;459;48.676;9.034;2023-05-10T03:47:14;1.30;;;1.20;;
944;SDS011;459;48.676;9.034;2023-05-10T03:49:40;1.37;;;1.27;;
944;SDS011;459;48.676;9.034;2023-05-10T03:52:05;2.13;;;1.40;;
944;SDS011;459;48.676;9.034;2023-05-10T03:54:30;1.33;;;1.23;;
944;SDS011;459;48.676;9.034;2023-05-10T03:56:55;1.60;;;1.23;;
944;SDS011;459;48.676;9.034;2023-05-10T03:59:21;1.52;;;1.20;;
944;SDS011;459;48.676;9.034;2023-05-10T04:01:46;1.23;;;1.13;;
944;SDS011;459;48.676;9.034;2023-05-10T04:04:11;1.80;;;1.40;;
944;SDS011;459;48.676;9.034;2023-05-10T04:06:37;2.60;;;1.73;;
944;SDS011;459;48.676;9.034;2023-05-10T04:09:02;1.80;;;1.70;;
944;SDS011;459;48.676;9.034;2023-05-10T04:11:29;1.90;;;1.80;;
944;SDS011;459;48.676;9.034;2023-05-10T04:13:54;1.70;;;1.60;;
944;SDS011;459;48.676;9.034;2023-05-10T04:16:19;3.73;;;1.80;;
944;SDS011;459;48.676;9.034;2023-05-10T04:18:44;2.67;;;1.80;;
944;SDS011;459;48.676;9.034;2023-05-10T04:21:13;1.93;;;1.83;;
944;SDS011;459;48.676;9.034;2023-05-10T04:23:38;1.73;;;1.63;;
944;SDS011;459;48.676;9.034;2023-05-10T04:26:04;2.80;;;1.90;;
944;SDS011;459;48.676;9.034;2023-05-10T04:28:29;1.57;;;1.47;;
944;SDS011;459;48.676;9.034;2023-05-10T04:31:04;1.70;;;1.60;;
944;SDS011;459;48.676;9.034;2023-05-10T04:33:29;2.20;;;2.10;;
944;SDS011;459;48.676;9.034;2023-05-10T04:35:55;2.90;;;2.70;;
944;SDS011;459;48.676;9.034;2023-05-10T04:38:20;1.90;;;1.80;;
944;SDS011;459;48.676;9.034;2023-05-10T04:40:45;2.77;;;2.20;;
944;SDS011;459;48.676;9.034;2023-05-10T04:43:10;2.30;;;2.10;;
944;SDS011;459;48.676;9.034;2023-05-10T04:45:35;2.17;;;1.90;;
944;SDS011;459;48.676;9.034;2023-05-10T04:48:01;1.90;;;1.50;;
944;SDS011;459;48.676;9.034;2023-05-10T04:50:26;2.27;;;1.77;;
944;SDS011;459;48.676;9.034;2023-05-10T04:52:51;2.47;;;2.30;;
944;SDS011;459;48.676;9.034;2023-05-10T04:55:16;3.17;;;1.40;;
944;SDS011;459;48.676;9.034;2023-05-10T04:57:41;1.87;;;1.77;;
944;SDS011;459;48.676;9.034;2023-05-10T05:00:07;2.10;;;1.90;;
944;SDS011;459;48.676;9.034;2023-05-10T05:02:32;2.17;;;1.70;;
944;SDS011;459;48.676;9.034;2023-05-10T05:04:57;2.93;;;2.03;;
944;SDS011;459;48.676;9.034;2023-05-10T05:07:22;2.90;;;1.90;;
944;SDS011;459;48.676;9.034;2023-05-10T05:09:48;1.60;;;1.50;;
944;SDS011;459;48.676;9.034;2023-05-10T05:12:13;2.10;;;1.40;;
944;SDS011;459;48.676;9.034;2023-05-10T05:14:39;2.10;;;1.60;;
944;SDS011;459;48.676;9.034;2023-05-10T05:17:04;2.50;;;1.30;;
944;SDS011;459;48.676;9.034;2023-05-10T05:19:30;1.60;;;1.40;;
944;SDS011;459;48.676;9.034;2023-05-10T05:21:55;2.07;;;1.67;;
944;SDS011;459;48.676;9.034;2023-05-10T05:24:21;1.87;;;1.60;;
944;SDS011;459;48.676;9.034;2023-05-10T05:26:46;3.13;;;1.60;;
944;SDS011;459;48.676;9.034;2023-05-10T05:29:12;2.63;;;1.60;;
944;SDS011;459;48.676;9.034;2023-05-10T05:31:37;2.20;;;1.50;;
944;SDS011;459;48.676;9.034;2023-05-10T05:34:02;1.80;;;1.67;;
944;SDS011;459;48.676;9.034;2023-05-10T05:36:27;3.03;;;2.03;;
944;SDS011;459;48.676;9.034;2023-05-10T05:38:52;1.60;;;1.50;;
944;SDS011;459;48.676;9.034;2023-05-10T05:41:17;2.00;;;1.27;;
944;SDS011;459;48.676;9.034;2023-05-10T05:43:43;2.00;;;1.90;;
944;SDS011;459;48.676;9.034;2023-05-10T05:46:08;1.60;;;1.50;;
944;SDS011;459;48.676;9.034;2023-05-10T05:48:33;1.77;;;1.43;;
944;SDS011;459;48.676;9.034;2023-05-10T05:50:58;2.50;;;1.80;;
944;SDS011;459;48.676;9.034;2023-05-10T05:53:24;1.57;;;1.47;;
944;SDS011;459;48.676;9.034;2023-05-10T05:58:18;1.90;;;1.77;;
944;SDS011;459;48.676;9.034;2023-05-10T06:00:43;2.30;;;2.10;;
944;SDS011;459;48.676;9.034;2023-05-10T06:03:08;1.57;;;1.43;;
944;SDS011;459;48.676;9.034;2023-05-10T06:05:34;1.63;;;1.53;;
944;SDS011;459;48.676;9.034;2023-05-10T06:07:59;2.90;;;1.50;;
944;SDS011;459;48.676;9.034;2023-05-10T06:10:25;1.80;;;1.60;;
944;SDS011;459;48.676;9.034;2023-05-10T06:12:50;3.10;;;1.60;;
944;SDS011;459;48.676;9.034;2023-05-10T06:15:15;1.97;;;1.77;;
944;SDS011;459;48.676;9.034;2023-05-10T06:17:41;1.90;;;1.80;;
944;SDS011;459;48.676;9.034;2023-05-10T06:20:08;2.00;;;1.67;;
944;SDS011;459;48.676;9.034;2023-05-10T06:22:33;2.10;;;1.97;;
944;SDS011;459;48.676;9.034;2023-05-10T06:24:59;1.90;;;1.80;;
944;SDS011;459;48.676;9.034;2023-05-10T06:27:24;2.73;;;2.50;;
944;SDS011;459;48.676;9.034;2023-05-10T06:29:49;2.93;;;2.27;;
944;SDS011;459;48.676;9.034;2023-05-10T06:32:14;2.17;;;2.03;;
944;SDS011;459;48.676;9.034;2023-05-10T06:34:39;1.97;;;1.87;;
944;SDS011;459;48.676;9.034;2023-05-10T06:37:05;2.13;;;1.63;;
944;SDS011;459;48.676;9.034;2023-05-10T06:39:30;1.90;;;1.70;;
944;SDS011;459;48.676;9.034;2023-05-10T06:41:55;2.40;;;1.77;;
944;SDS011;459;48.676;9.034;2023-05-10T06:44:20;2.70;;;2.40;;
944;SDS011;459;48.676;9.034;2023-05-10T06:46:45;2.60;;;1.70;;
944;SDS011;459;48.676;9.034;2023-05-10T06:49:11;1.90;;;1.80;;
944;SDS011;459;48.676;9.034;2023-05-10T06:51:36;2.67;;;2.00;;
944;SDS011;459;48.676;9.034;2023-05-10T06:54:01;1.60;;;1.50;;
944;SDS011;459;48.676;9.034;2023-05-10T06:56:26;1.80;;;1.50;;
944;SDS011;459;48.676;9.034;2023-05-10T06:58:52;1.60;;;1.50;;
944;SDS011;459;48.676;9.034;2023-05-10T07:01:17;1.80;;;1.50;;
944;SDS011;459;48.676;9.034;2023-05-10T07:03:42;1.63;;;1.50;;
944;SDS011;459;48.676;9.034;2023-05-10T07:06:08;2.40;;;2.20;;
944;SDS011;459;48.676;9.034;2023-05-10T07:08:33;5.43;;;1.90;;
944;SDS011;459;48.676;9.034;2023-05-10T07:10:59;2.20;;;2.00;;
944;SDS011;459;48.676;9.034;2023-05-10T07:13:24;3.10;;;1.83;;
944;SDS011;459;48.676;9.034;2023-05-10T07:15:50;2.10;;;2.00;;
944;SDS011;459;48.676;9.034;2023-05-10T07:18:15;1.97;;;1.77;;
944;SDS011;459;48.676;9.034;2023-05-10T07:20:40;2.20;;;1.90;;
944;SDS011;459;48.676;9.034;2023-05-10T07:23:05;1.33;;;1.23;;
944;SDS011;459;48.676;9.034;2023-05-10T07:25:30;1.87;;;1.50;;
944;SDS011;459;48.676;9.034;2023-05-10T07:27:55;1.53;;;1.40;;
944;SDS011;459;48.676;9.034;2023-05-10T07:30:21;1.77;;;1.67;;
944;SDS011;459;48.676;9.034;2023-05-10T07:32:46;1.60;;;1.50;;
944;SDS011;459;48.676;9.034;2023-05-10T07:35:11;2.90;;;1.90;;
944;SDS011;459;48.676;9.034;2023-05-10T07:37:36;1.70;;;1.60;;
944;SDS011;459;48.676;9.034;2023-05-10T07:40:01;1.53;;;1.40;;
944;SDS011;459;48.676;9.034;2023-05-10T07:42:26;1.37;;;1.27;;
944;SDS011;459;48.676;9.034;2023-05-10T07:44:52;1.63;;;1.00;;
944;SDS011;459;48.676;9.034;2023-05-10T07:47:17;1.43;;;1.33;;
944;SDS011;459;48.676;9.034;2023-05-10T07:49:42;1.73;;;1.27;;
944;SDS011;459;48.676;9.034;2023-05-10T07:52:08;1.20;;;1.10;;
944;SDS011;459;48.676;9.034;2023-05-10T07:54:33;1.20;;;1.10;;
944;SDS011;459;48.676;9.034;2023-05-10T07:56:59;3.00;;;1.20;;
944;SDS011;459;48.676;9.034;2023-05-10T07:59:24;1.13;;;0.73;;
944;SDS011;459;48.676;9.034;2023-05-10T08:01:49;2.90;;;1.30;;
944;SDS011;459;48.676;9.034;2023-05-10T08:04:15;0.80;;;0.70;;
944;SDS011;459;48.676;9.034;2023-05-10T08:06:40;0.80;;;0.80;;
944;SDS011;459;48.676;9.034;2023-05-10T08:09:05;1.23;;;1.13;;
944;SDS011;459;48.676;9.034;2023-05-10T08:11:30;1.00;;;0.80;;
944;SDS011;459;48.676;9.034;2023-05-10T08:13:55;1.30;;;1.00;;
944;SDS011;459;48.676;9.034;2023-05-10T08:16:20;1.37;;;1.23;;
944;SDS011;459;48.676;9.034;2023-05-10T08:18:46;0.90;;;0.80;;
944;SDS011;459;48.676;9.034;2023-05-10T08:21:12;0.90;;;0.80;;
944;SDS011;459;48.676;9.034;2023-05-10T08:23:37;4.10;;;0.90;;
944;SDS011;459;48.676;9.034;2023-05-10T08:26:02;1.43;;;0.90;;
944;SDS011;459;48.676;9.034;2023-05-10T08:28:27;2.07;;;1.10;;
944;SDS011;459;48.676;9.034;2023-05-10T08:30:53;1.27;;;0.60;;
944;SDS011;459;48.676;9.034;2023-05-10T08:33:18;0.73;;;0.73;;
944;SDS011;459;48.676;9.034;2023-05-10T08:35:43;1.47;;;1.37;;
944;SDS011;459;48.676;9.034;2023-05-10T08:38:09;1.23;;;0.97;;
944;SDS011;459;48.676;9.034;2023-05-10T08:40:34;0.90;;;0.70;;
944;SDS011;459;48.676;9.034;2023-05-10T08:43:04;0.97;;;0.50;;
944;SDS011;459;48.676;9.034;2023-05-10T08:45:31;1.40;;;1.30;;
944;SDS011;459;48.676;9.034;2023-05-10T08:47:57;0.80;;;0.80;;
944;SDS011;459;48.676;9.034;2023-05-10T08:50:23;1.00;;;0.90;;
944;SDS011;459;48.676;9.034;2023-05-10T08:52:49;9.00;;;0.90;;
944;SDS011;459;48.676;9.034;2023-05-10T08:55:17;1.43;;;0.80;;
944;SDS011;459;48.676;9.034;2023-05-10T08:57:43;1.13;;;0.80;;
944;SDS011;459;48.676;9.034;2023-05-10T09:00:08;1.10;;;0.90;;
944;SDS011;459;48.676;9.034;2023-05-10T09:02:34;1.00;;;0.63;;
944;SDS011;459;48.676;9.034;2023-05-10T09:05:00;1.63;;;0.80;;
944;SDS011;459;48.676;9.034;2023-05-10T09:07:25;1.17;;;0.63;;
944;SDS011;459;48.676;9.034;2023-05-10T09:09:50;1.63;;;0.87;;
944;SDS011;459;48.676;9.034;2023-05-10T09:12:16;1.00;;;0.80;;
944;SDS011;459;48.676;9.034;2023-05-10T09:14:42;0.90;;;0.60;;
944;SDS011;459;48.676;9.034;2023-05-10T09:17:09;0.60;;;0.50;;
944;SDS011;459;48.676;9.034;2023-05-10T09:19:34;2.80;;;0.90;;
944;SDS011;459;48.676;9.034;2023-05-10T09:21:59;0.50;;;0.50;;
944;SDS011;459;48.676;9.034;2023-05-10T09:24:26;0.80;;;0.77;;
944;SDS011;459;48.676;9.034;2023-05-10T09:26:52;0.70;;;0.70;;
944;SDS011;459;48.676;9.034;2023-05-10T09:29:17;2.50;;;0.80;;
944;SDS011;459;48.676;9.034;2023-05-10T09:31:51;0.80;;;0.63;;
944;SDS011;459;48.676;9.034;2023-05-10T09:34:18;1.37;;;0.90;;
944;SDS011;459;48.676;9.034;2023-05-10T09:36:50;1.50;;;0.70;;
944;SDS011;459;48.676;9.034;2023-05-10T09:39:15;0.87;;;0.50;;
944;SDS011;459;48.676;9.034;2023-05-10T09:41:41;4.07;;;0.70;;
944;SDS011;459;48.676;9.034;2023-05-10T09:44:07;1.27;;;0.60;;
944;SDS011;459;48.676;9.034;2023-05-10T09:46:34;0.70;;;0.60;;
944;SDS011;459;48.676;9.034;2023-05-10T09:49:00;1.30;;;0.60;;
944;SDS011;459;48.676;9.034;2023-05-10T09:51:25;1.97;;;0.60;;
944;SDS011;459;48.676;9.034;2023-05-10T09:54:10;0.70;;;0.67;;
944;SDS011;459;48.676;9.034;2023-05-10T09:56:36;0.50;;;0.50;;
944;SDS011;459;48.676;9.034;2023-05-10T09:59:03;0.70;;;0.50;;
944;SDS011;459;48.676;9.034;2023-05-10T10:01:29;0.50;;;0.40;;
944;SDS011;459;48.676;9.034;2023-05-10T10:03:54;2.20;;;0.80;;
944;SDS011;459;48.676;9.034;2023-05-10T10:06:19;0.70;;;0.70;;
944;SDS011;459;48.676;9.034;2023-05-10T10:08:45;0.90;;;0.57;;
944;SDS011;459;48.676;9.034;2023-05-10T10:11:10;0.60;;;0.43;;
944;SDS011;459;48.676;9.034;2023-05-10T10:13:35;2.40;;;0.50;;
944;SDS011;459;48.676;9.034;2023-05-10T10:16:00;0.93;;;0.63;;
944;SDS011;459;48.676;9.034;2023-05-10T10:18:26;0.60;;;0.50;;
944;SDS011;459;48.676;9.034;2023-05-10T10:20:53;0.93;;;0.60;;
944;SDS011;459;48.676;9.034;2023-05-10T10:23:19;0.80;;;0.57;;
944;SDS011;459;48.676;9.034;2023-05-10T10:25:44;0.90;;;0.80;;
944;SDS011;459;48.676;9.034;2023-05-10T10:28:20;0.87;;;0.50;;
944;SDS011;459;48.676;9.034;2023-05-10T10:30:48;2.10;;;0.80;;
944;SDS011;459;48.676;9.034;2023-05-10T10:33:26;1.00;;;0.60;;
944;SDS011;459;48.676;9.034;2023-05-10T10:38:25;0.80;;;0.80;;
944;SDS011;459;48.676;9.034;2023-05-10T10:41:03;0.70;;;0.50;;
944;SDS011;459;48.676;9.034;2023-05-10T10:43:32;1.60;;;0.90;;
944;SDS011;459;48.676;9.034;2023-05-10T10:48:32;2.20;;;0.90;;
944;SDS011;459;48.676;9.034;2023-05-10T10:50:57;1.17;;;0.60;;
944;SDS011;459;48.676;9.034;2023-05-10T10:53:25;1.10;;;0.70;;
944;SDS011;459;48.676;9.034;2023-05-10T10:55:55;0.97;;;0.70;;
944;SDS011;459;48.676;9.034;2023-05-10T10:58:30;0.80;;;0.80;;
944;SDS011;459;48.676;9.034;2023-05-10T11:01:15;1.50;;;0.70;;
944;SDS011;459;48.676;9.034;2023-05-10T11:03:41;0.70;;;0.60;;
944;SDS011;459;48.676;9.034;2023-05-10T11:06:06;0.83;;;0.80;;
944;SDS011;459;48.676;9.034;2023-05-10T11:08:33;0.90;;;0.70;;
944;SDS011;459;48.676;9.034;2023-05-10T11:13:31;0.80;;;0.70;;
944;SDS011;459;48.676;9.034;2023-05-10T11:15:56;1.27;;;0.97;;
944;SDS011;459;48.676;9.034;2023-05-10T11:18:25;1.80;;;0.73;;
944;SDS011;459;48.676;9.034;2023-05-10T11:20:51;1.90;;;0.60;;
944;SDS011;459;48.676;9.034;2023-05-10T11:23:17;0.90;;;0.70;;
944;SDS011;459;48.676;9.034;2023-05-10T11:25:43;1.20;;;0.70;;
944;SDS011;459;48.676;9.034;2023-05-10T11:28:11;1.53;;;1.17;;
944;SDS011;459;48.676;9.034;2023-05-10T11:30:40;1.30;;;1.20;;
944;SDS011;459;48.676;9.034;2023-05-10T11:33:06;1.00;;;0.70;;
944;SDS011;459;48.676;9.034;2023-05-10T11:35:36;1.63;;;0.90;;
944;SDS011;459;48.676;9.034;2023-05-10T11:38:01;1.53;;;0.70;;
944;SDS011;459;48.676;9.034;2023-05-10T11:40:26;1.50;;;1.27;;
944;SDS011;459;48.676;9.034;2023-05-10T11:42:52;1.50;;;0.90;;
944;SDS011;459;48.676;9.034;2023-05-10T11:45:20;1.10;;;0.80;;
944;SDS011;459;48.676;9.034;2023-05-10T11:47:48;2.00;;;0.87;;
944;SDS011;459;48.676;9.034;2023-05-10T11:50:13;1.13;;;0.80;;
944;SDS011;459;48.676;9.034;2023-05-10T11:52:39;1.67;;;1.00;;
944;SDS011;459;48.676;9.034;2023-05-10T11:55:04;4.00;;;1.10;;
944;SDS011;459;48.676;9.034;2023-05-10T11:57:30;0.70;;;0.70;;
944;SDS011;459;48.676;9.034;2023-05-10T11:59:56;0.80;;;0.77;;
944;SDS011;459;48.676;9.034;2023-05-10T12:02:21;3.23;;;0.90;;
944;SDS011;459;48.676;9.034;2023-05-10T12:04:47;1.57;;;0.70;;
944;SDS011;459;48.676;9.034;2023-05-10T12:07:12;4.00;;;1.10;;
944;SDS011;459;48.676;9.034;2023-05-10T12:09:41;1.77;;;1.07;;
944;SDS011;459;48.676;9.034;2023-05-10T12:12:07;1.47;;;0.90;;
944;SDS011;459;48.676;9.034;2023-05-10T12:14:34;1.60;;;1.03;;
944;SDS011;459;48.676;9.034;2023-05-10T12:16:59;2.00;;;1.30;;
944;SDS011;459;48.676;9.034;2023-05-10T12:19:24;1.37;;;0.97;;
944;SDS011;459;48.676;9.034;2023-05-10T12:21:49;4.10;;;1.10;;
944;SDS011;459;48.676;9.034;2023-05-10T12:24:15;1.53;;;1.00;;
944;SDS011;459;48.676;9.034;2023-05-10T12:26:43;1.10;;;1.00;;
944;SDS011;459;48.676;9.034;2023-05-10T12:29:14;1.47;;;0.97;;
944;SDS011;459;48.676;9.034;2023-05-10T12:31:53;1.73;;;1.10;;
944;SDS011;459;48.676;9.034;2023-05-10T12:36:54;1.00;;;0.83;;
944;SDS011;459;48.676;9.034;2023-05-10T12:39:19;0.80;;;0.70;;
944;SDS011;459;48.676;9.034;2023-05-10T12:41:44;1.87;;;1.27;;
944;SDS011;459;48.676;9.034;2023-05-10T12:44:10;2.70;;;1.20;;
944;SDS011;459;48.676;9.034;2023-05-10T12:46:35;4.67;;;0.90;;
944;SDS011;459;48.676;9.034;2023-05-10T12:49:00;1.67;;;1.00;;
944;SDS011;459;48.676;9.034;2023-05-10T12:51:25;1.70;;;0.93;;
944;SDS011;459;48.676;9.034;2023-05-10T12:53:50;2.10;;;1.43;;
944;SDS011;459;48.676;9.034;2023-05-10T12:56:16;1.87;;;1.20;;
944;SDS011;459;48.676;9.034;2023-05-10T12:58:41;3.03;;;1.03;;
944;SDS011;459;48.676;9.034;2023-05-10T13:01:06;2.20;;;1.57;;
944;SDS011;459;48.676;9.034;2023-05-10T13:03:31;3.90;;;1.07;;
944;SDS011;459;48.676;9.034;2023-05-10T13:05:57;3.60;;;1.20;;
944;SDS011;459;48.676;9.034;2023-05-10T13:08:22;1.83;;;1.30;;
944;SDS011;459;48.676;9.034;2023-05-10T13:10:47;1.73;;;1.10;;
944;SDS011;459;48.676;9.034;2023-05-10T13:13:12;2.23;;;0.90;;
944;SDS011;459;48.676;9.034;2023-05-10T13:15:38;1.13;;;1.00;;
944;SDS011;459;48.676;9.034;2023-05-10T13:18:03;2.27;;;1.60;;
944;SDS011;459;48.676;9.034;2023-05-10T13:20:28;2.93;;;1.47;;
944;SDS011;459;48.676;9.034;2023-05-10T13:22:53;1.07;;;0.97;;
944;SDS011;459;48.676;9.034;2023-05-10T13:25:18;1.13;;;1.00;;
944;SDS011;459;48.676;9.034;2023-05-10T13:27:44;2.20;;;0.70;;
944;SDS011;459;48.676;9.034;2023-05-10T13:30:10;1.30;;;1.00;;
944;SDS011;459;48.676;9.034;2023-05-10T13:32:36;5.03;;;1.37;;
944;SDS011;459;48.676;9.034;2023-05-10T13:35:01;2.73;;;1.00;;
944;SDS011;459;48.676;9.034;2023-05-10T13:37:28;3.07;;;1.10;;
944;SDS011;459;48.676;9.034;2023-05-10T13:39:54;1.13;;;0.97;;
944;SDS011;459;48.676;9.034;2023-05-10T13:42:19;1.10;;;1.00;;
944;SDS011;459;48.676;9.034;2023-05-10T13:44:44;1.23;;;1.00;;
944;SDS011;459;48.676;9.034;2023-05-10T13:47:10;1.47;;;1.00;;
944;SDS011;459;48.676;9.034;2023-05-10T13:49:35;2.00;;;1.00;;
944;SDS011;459;48.676;9.034;2023-05-10T13:52:00;1.53;;;1.17;;
944;SDS011;459;48.676;9.034;2023-05-10T13:54:32;1.27;;;1.13;;
944;SDS011;459;48.676;9.034;2023-05-10T13:56:57;4.77;;;1.23;;
944;SDS011;459;48.676;9.034;2023-05-10T13:59:22;1.43;;;1.10;;
944;SDS011;459;48.676;9.034;2023-05-10T14:01:47;4.33;;;1.10;;
944;SDS011;459;48.676;9.034;2023-05-10T14:04:13;2.50;;;1.17;;
944;SDS011;459;48.676;9.034;2023-05-10T14:06:38;2.80;;;0.90;;
944;SDS011;459;48.676;9.034;2023-05-10T14:09:03;1.03;;;0.90;;
944;SDS011;459;48.676;9.034;2023-05-10T14:11:28;2.23;;;1.50;;
944;SDS011;459;48.676;9.034;2023-05-10T14:13:53;2.53;;;1.13;;
944;SDS011;459;48.676;9.034;2023-05-10T14:16:19;1.20;;;1.00;;
944;SDS011;459;48.676;9.034;2023-05-10T14:18:45;2.20;;;0.90;;
944;SDS011;459;48.676;9.034;2023-05-10T14:21:10;2.20;;;1.40;;
944;SDS011;459;48.676;9.034;2023-05-10T14:23:35;1.27;;;1.17;;
944;SDS011;459;48.676;9.034;2023-05-10T14:26:00;1.20;;;1.10;;
944;SDS011;459;48.676;9.034;2023-05-10T14:28:26;1.50;;;1.10;;
944;SDS011;459;48.676;9.034;2023-05-10T14:30:51;6.93;;;1.80;;
944;SDS011;459;48.676;9.034;2023-05-10T14:33:16;2.27;;;0.90;;
944;SDS011;459;48.676;9.034;2023-05-10T14:35:42;3.50;;;0.90;;
944;SDS011;459;48.676;9.034;2023-05-10T14:38:07;1.67;;;1.10;;
944;SDS011;459;48.676;9.034;2023-05-10T14:40:32;0.87;;;0.87;;
944;SDS011;459;48.676;9.034;2023-05-10T14:42:58;1.87;;;1.10;;
944;SDS011;459;48.676;9.034;2023-05-10T14:45:23;1.53;;;1.07;;
944;SDS011;459;48.676;9.034;2023-05-10T14:47:49;1.10;;;1.00;;
944;SDS011;459;48.676;9.034;2023-05-10T14:50:14;1.73;;;1.00;;
944;SDS011;459;48.676;9.034;2023-05-10T14:52:39;1.83;;;1.17;;
944;SDS011;459;48.676;9.034;2023-05-10T14:55:05;1.83;;;1.47;;
944;SDS011;459;48.676;9.034;2023-05-10T14:57:30;2.03;;;1.00;;
944;SDS011;459;48.676;9.034;2023-05-10T14:59:55;6.53;;;1.50;;
944;SDS011;459;48.676;9.034;2023-05-10T15:02:21;1.60;;;0.97;;
944;SDS011;459;48.676;9.034;2023-05-10T15:04:46;1.83;;;0.63;;
944;SDS011;459;48.676;9.034;2023-05-10T15:07:12;1.73;;;0.97;;
944;SDS011;459;48.676;9.034;2023-05-10T15:09:42;2.03;;;0.83;;
944;SDS011;459;48.676;9.034;2023-05-10T15:12:07;1.40;;;0.90;;
944;SDS011;459;48.676;9.034;2023-05-10T15:14:32;1.30;;;0.97;;
944;SDS011;459;48.676;9.034;2023-05-10T15:16:58;2.20;;;1.27;;
944;SDS011;459;48.676;9.034;2023-05-10T15:19:23;0.93;;;0.73;;
944;SDS011;459;48.676;9.034;2023-05-10T15:21:48;1.40;;;0.83;;
944;SDS011;459;48.676;9.034;2023-05-10T15:24:13;3.63;;;1.23;;
944;SDS011;459;48.676;9.034;2023-05-10T15:26:39;1.67;;;0.83;;
944;SDS011;459;48.676;9.034;2023-05-10T15:29:05;2.57;;;1.10;;
944;SDS011;459;48.676;9.034;2023-05-10T15:31:30;1.10;;;1.00;;
944;SDS011;459;48.676;9.034;2023-05-10T15:33:56;1.77;;;0.70;;
944;SDS011;459;48.676;9.034;2023-05-10T15:36:22;2.93;;;1.00;;
944;SDS011;459;48.676;9.034;2023-05-10T15:38:47;2.77;;;0.60;;
944;SDS011;459;48.676;9.034;2023-05-10T15:41:12;1.03;;;0.90;;
944;SDS011;459;48.676;9.034;2023-05-10T15:43:37;1.10;;;0.70;;
944;SDS011;459;48.676;9.034;2023-05-10T15:46:02;0.70;;;0.70;;
944;SDS011;459;48.676;9.034;2023-05-10T15:48:28;1.03;;;0.93;;
944;SDS011;459;48.676;9.034;2023-05-10T15:50:56;1.00;;;0.60;;
944;SDS011;459;48.676;9.034;2023-05-10T15:53:21;1.10;;;0.90;;
944;SDS011;459;48.676;9.034;2023-05-10T15:55:46;1.13;;;0.80;;
944;SDS011;459;48.676;9.034;2023-05-10T15:58:11;1.63;;;0.80;;
944;SDS011;459;48.676;9.034;2023-05-10T16:00:37;3.47;;;0.80;;